createdAt,value
2023-09-12T00:04:07.304Z,20.20
2023-09-12T00:09:14.268Z,20.40
2023-09-12T00:14:21.369Z,21.50
2023-09-12T00:19:28.216Z,20.00
2023-09-12T00:24:35.076Z,21.70
2023-09-12T00:29:41.950Z,23.50
2023-09-12T00:34:49.205Z,22.70
2023-09-12T00:39:56.357Z,22.50
2023-09-12T00:45:03.742Z,22.40
2023-09-12T00:50:13.204Z,24.00
2023-09-12T00:55:20.639Z,23.30
2023-09-12T01:00:28.235Z,22.30
2023-09-12T01:05:38.171Z,22.40
2023-09-12T01:10:47.801Z,22.30
2023-09-12T01:15:55.680Z,23.10
2023-09-12T01:21:43.466Z,23.30
2023-09-12T01:26:58.485Z,21.90
2023-09-12T01:32:07.063Z,24.10
2023-09-12T01:37:14.374Z,27.70
2023-09-12T01:42:24.939Z,26.40
2023-09-12T01:47:33.948Z,27.90
2023-09-12T01:52:42.796Z,26.70
2023-09-12T01:57:50.667Z,30.10
2023-09-12T02:02:58.527Z,29.20
2023-09-12T02:08:06.382Z,27.40
2023-09-12T02:13:13.816Z,30.80
2023-09-12T02:18:21.066Z,31.90
2023-09-12T02:23:28.400Z,30.50
2023-09-12T02:28:35.737Z,30.50
2023-09-12T02:33:43.321Z,29.20
2023-09-12T02:38:50.938Z,28.50
2023-09-12T02:44:00.292Z,27.20
2023-09-12T02:49:07.900Z,27.50
2023-09-12T02:54:15.253Z,27.80
2023-09-12T02:59:22.511Z,26.90
2023-09-12T03:04:31.814Z,26.10
2023-09-12T03:09:39.897Z,25.60
2023-09-12T03:14:47.558Z,26.50
2023-09-12T03:19:54.971Z,28.00
2023-09-12T03:25:02.154Z,26.20
2023-09-12T03:30:11.812Z,26.50
2023-09-12T03:35:19.723Z,27.60
2023-09-12T03:40:27.212Z,26.50
2023-09-12T03:45:34.538Z,27.20
2023-09-12T03:50:41.890Z,26.80
2023-09-12T03:55:49.406Z,27.40
2023-09-12T04:00:57.137Z,28.00
2023-09-12T04:06:04.366Z,28.40
2023-09-12T04:11:13.029Z,28.00
2023-09-12T04:16:20.548Z,29.90
2023-09-12T04:21:27.932Z,29.10
2023-09-12T04:26:35.456Z,28.00
2023-09-12T04:31:42.857Z,30.30
2023-09-12T04:36:50.371Z,29.90
2023-09-12T04:41:57.777Z,30.40
2023-09-12T04:47:05.420Z,29.50
2023-09-12T04:52:13.394Z,33.00
2023-09-12T05:02:47.356Z,31.00
2023-09-12T05:07:54.992Z,33.30
2023-09-12T05:13:02.460Z,33.50
2023-09-12T05:18:10.308Z,33.70
2023-09-12T05:23:17.910Z,33.80
2023-09-12T05:28:25.580Z,33.30
2023-09-12T05:33:34.168Z,35.20
2023-09-12T05:38:42.935Z,33.10
2023-09-12T05:43:51.101Z,36.40
2023-09-12T05:48:58.410Z,34.40
2023-09-12T05:54:05.868Z,37.80
2023-09-12T05:59:13.208Z,34.70
2023-09-12T06:04:20.943Z,35.80
2023-09-12T06:09:28.297Z,38.30
2023-09-12T06:14:35.511Z,37.10
2023-09-12T06:19:42.699Z,32.60
2023-09-12T06:24:49.894Z,31.30
2023-09-12T06:29:57.064Z,31.80
2023-09-12T06:35:04.211Z,31.60
2023-09-12T06:40:13.104Z,30.80
2023-09-12T06:45:20.794Z,26.80
2023-09-12T06:50:31.629Z,30.40
2023-09-12T06:55:40.963Z,27.20
2023-09-12T07:00:48.215Z,27.00
2023-09-12T07:05:55.866Z,22.70
2023-09-12T07:11:06.893Z,22.10
2023-09-12T07:16:14.202Z,21.60
2023-09-12T07:21:22.045Z,20.80
2023-09-12T07:26:29.269Z,19.80
2023-09-12T07:31:36.517Z,21.70
2023-09-12T07:36:43.784Z,20.50
2023-09-12T07:41:51.083Z,19.30
2023-09-12T07:46:58.388Z,17.80
2023-09-12T07:52:05.869Z,17.20
2023-09-12T07:57:13.082Z,16.90
2023-09-12T08:02:20.257Z,16.40
2023-09-12T08:07:27.649Z,16.50
2023-09-12T08:12:36.053Z,14.90
2023-09-12T08:17:44.061Z,14.70
2023-09-12T08:22:51.535Z,13.90
2023-09-12T08:27:58.831Z,12.60
2023-09-12T08:33:08.209Z,13.40
2023-09-12T08:38:15.531Z,14.30
2023-09-12T08:43:23.467Z,15.40
2023-09-12T08:48:33.102Z,16.70
2023-09-12T08:53:41.021Z,19.90
2023-09-12T08:58:49.980Z,17.80
2023-09-12T09:03:57.485Z,16.20
2023-09-12T09:09:06.873Z,15.60
2023-09-12T09:14:14.269Z,13.20
2023-09-12T09:19:21.831Z,12.00
2023-09-12T09:24:29.513Z,10.80
2023-09-12T09:29:50.266Z,11.50
2023-09-12T09:34:58.034Z,11.00
2023-09-12T09:40:07.642Z,12.20
2023-09-12T09:45:15.381Z,11.50
2023-09-12T09:50:23.152Z,10.40
2023-09-12T09:55:30.790Z,10.90
2023-09-12T10:00:40.628Z,9.30
2023-09-12T10:05:51.516Z,10.60
2023-09-12T10:11:00.905Z,10.90
2023-09-12T10:21:25.162Z,9.90
2023-09-12T10:26:33.149Z,9.30
2023-09-12T10:31:40.566Z,9.30
2023-09-12T10:36:50.287Z,8.60
2023-09-12T10:41:59.596Z,9.70
2023-09-12T10:47:08.761Z,9.20
2023-09-12T10:52:28.225Z,7.90
2023-09-12T10:57:35.800Z,7.60
2023-09-12T11:02:44.810Z,7.10
2023-09-12T11:07:52.222Z,7.00
2023-09-12T11:13:00.708Z,6.80
2023-09-12T11:18:08.827Z,7.10
2023-09-12T11:23:16.297Z,7.20
2023-09-12T11:28:24.364Z,6.60
2023-09-12T11:33:34.259Z,7.60
2023-09-12T11:38:41.759Z,7.20
2023-09-12T11:43:49.772Z,7.20
2023-09-12T11:48:58.618Z,7.60
2023-09-12T11:54:06.449Z,7.80
2023-09-12T11:59:14.660Z,6.50
2023-09-12T12:04:25.276Z,6.70
2023-09-12T12:09:33.468Z,7.00
2023-09-12T12:14:40.988Z,6.20
2023-09-12T12:19:50.990Z,6.70
2023-09-12T12:25:07.637Z,6.30
2023-09-12T12:30:16.935Z,5.90
2023-09-12T12:35:44.229Z,7.10
2023-09-12T12:40:52.624Z,6.10
2023-09-12T12:46:01.329Z,5.70
2023-09-12T12:51:19.180Z,6.80
2023-09-12T12:56:31.463Z,6.90
2023-09-12T13:01:40.902Z,6.70
2023-09-12T13:06:48.293Z,6.00
2023-09-12T13:11:55.829Z,6.50
2023-09-12T13:17:03.346Z,6.80
2023-09-12T13:22:11.251Z,6.90
2023-09-12T13:27:18.434Z,6.40
2023-09-12T13:32:25.624Z,7.20
2023-09-12T13:37:32.843Z,7.30
2023-09-12T13:42:40.328Z,6.90
2023-09-12T13:47:47.667Z,6.50
2023-09-12T13:52:55.545Z,6.10
2023-09-12T13:58:03.683Z,6.50
2023-09-12T14:03:11.360Z,6.30
2023-09-12T14:08:19.425Z,6.90
2023-09-12T14:13:27.051Z,7.10
2023-09-12T14:18:34.980Z,5.80
2023-09-12T14:23:42.849Z,6.10
2023-09-12T14:28:52.058Z,6.10
2023-09-12T14:34:00.065Z,5.80
2023-09-12T14:39:07.768Z,5.90
2023-09-12T14:44:15.005Z,5.10
2023-09-12T14:49:22.705Z,5.90
2023-09-12T14:54:30.046Z,5.80
2023-09-12T14:59:37.271Z,5.80
2023-09-12T15:04:44.513Z,5.80
2023-09-12T15:09:51.824Z,5.90
2023-09-12T15:14:59.030Z,5.60
2023-09-12T15:20:07.385Z,5.80
2023-09-12T15:25:14.584Z,5.70
2023-09-12T15:30:21.886Z,5.40
2023-09-12T15:35:29.119Z,6.30
2023-09-12T15:40:36.719Z,5.60
2023-09-12T15:45:51.117Z,5.90
2023-09-12T15:50:59.645Z,5.90
2023-09-12T15:56:07.092Z,5.70
2023-09-12T16:01:14.436Z,6.40
2023-09-12T16:06:21.758Z,6.70
2023-09-12T16:11:29.112Z,7.20
2023-09-12T16:16:36.639Z,6.70
2023-09-12T16:21:43.946Z,6.80
2023-09-12T16:26:51.364Z,7.60
2023-09-12T16:31:58.637Z,8.90
2023-09-12T16:37:06.218Z,8.00
2023-09-12T16:47:19.658Z,7.60
2023-09-12T16:52:27.106Z,8.20
2023-09-12T16:57:34.453Z,8.00
2023-09-12T17:02:41.908Z,9.30
2023-09-12T17:07:49.164Z,7.80
2023-09-12T17:12:56.516Z,9.30
2023-09-12T17:18:03.825Z,8.90
2023-09-12T17:23:11.899Z,8.70
2023-09-12T17:28:19.148Z,8.50
2023-09-12T17:33:26.421Z,9.10
2023-09-12T17:38:33.715Z,9.20
2023-09-12T17:43:41.822Z,8.60
2023-09-12T17:48:49.337Z,10.00
2023-09-12T17:53:56.633Z,10.20
2023-09-12T17:59:04.237Z,10.80
2023-09-12T18:04:12.407Z,9.90
2023-09-12T18:09:20.418Z,9.70
2023-09-12T18:14:28.193Z,9.60
2023-09-12T18:19:36.370Z,10.10
2023-09-12T18:24:43.660Z,10.60
2023-09-12T18:29:50.941Z,10.50
2023-09-12T18:34:59.098Z,11.10
2023-09-12T18:40:07.061Z,10.80
2023-09-12T18:45:20.566Z,12.70
2023-09-12T18:50:28.385Z,12.80
2023-09-12T18:55:35.745Z,12.20
2023-09-12T19:00:43.977Z,12.60
2023-09-12T19:05:51.211Z,13.80
2023-09-12T19:10:58.665Z,13.50
2023-09-12T19:16:06.169Z,15.60
2023-09-12T19:21:13.590Z,13.80
2023-09-12T19:26:20.963Z,14.10
2023-09-12T19:31:28.572Z,14.20
2023-09-12T19:36:37.015Z,14.30
2023-09-12T19:41:44.301Z,14.10
2023-09-12T19:46:51.654Z,15.60
2023-09-12T19:51:58.896Z,16.10
2023-09-12T19:57:06.499Z,15.70
2023-09-12T20:02:13.917Z,16.10
2023-09-12T20:07:24.882Z,17.40
2023-09-12T20:12:32.773Z,17.40
2023-09-12T20:17:40.226Z,16.20
2023-09-12T20:22:49.392Z,15.80
2023-09-12T20:27:56.778Z,16.80
2023-09-12T20:33:08.624Z,16.60
2023-09-12T20:38:15.989Z,16.90
2023-09-12T20:43:23.309Z,16.40
2023-09-12T20:48:32.889Z,16.80
2023-09-12T20:53:40.340Z,17.00
2023-09-12T20:58:48.516Z,17.20
2023-09-12T21:03:57.552Z,17.50
2023-09-12T21:09:05.241Z,17.30
2023-09-12T21:14:12.549Z,17.50
2023-09-12T21:19:19.727Z,17.70
2023-09-12T21:24:26.972Z,18.30
2023-09-12T21:29:34.365Z,17.90
2023-09-12T21:34:44.789Z,20.00
2023-09-12T21:39:51.968Z,18.60
2023-09-12T21:44:59.167Z,19.40
2023-09-12T21:50:07.998Z,18.40
2023-09-12T21:55:15.241Z,19.70
2023-09-12T22:00:24.560Z,19.60
2023-09-12T22:05:32.366Z,20.70
2023-09-12T22:10:41.816Z,18.70
2023-09-12T22:15:49.287Z,19.80
2023-09-12T22:20:58.712Z,19.90
2023-09-12T22:26:13.162Z,18.20
2023-09-12T22:31:20.544Z,18.80
2023-09-12T22:36:27.888Z,20.30
2023-09-12T22:41:35.113Z,20.10
2023-09-12T22:46:42.406Z,20.40
2023-09-12T22:51:49.686Z,21.30
2023-09-12T22:56:57.008Z,19.70
2023-09-12T23:02:04.620Z,19.40
2023-09-12T23:07:11.849Z,20.70
2023-09-12T23:12:19.057Z,19.20
2023-09-12T23:17:26.709Z,19.90
2023-09-12T23:22:33.940Z,20.00
2023-09-12T23:27:41.484Z,21.60
2023-09-12T23:32:49.287Z,21.40
2023-09-12T23:37:56.667Z,21.90
2023-09-12T23:43:04.149Z,21.50
2023-09-12T23:48:11.626Z,22.00
2023-09-12T23:53:20.921Z,21.80
2023-09-12T23:58:28.361Z,22.50
